sensor_id;sensor_type;location;lat;lon;timestamp;P1;durP1;ratioP1;P2;durP2;ratioP2
50731;SDS011;36700;50.488;2.544;2023-06-26T00:00:58;8.73;;;3.80;;
50731;SDS011;36700;50.488;2.544;2023-06-26T00:03:24;8.68;;;4.00;;
50731;SDS011;36700;50.488;2.544;2023-06-26T00:05:50;8.52;;;3.85;;
50731;SDS011;36700;50.488;2.544;2023-06-26T00:08:16;8.27;;;3.75;;
50731;SDS011;36700;50.488;2.544;2023-06-26T00:10:42;7.25;;;3.78;;
50731;SDS011;36700;50.488;2.544;2023-06-26T00:13:08;9.15;;;4.03;;
50731;SDS011;36700;50.488;2.544;2023-06-26T00:15:38;8.45;;;3.65;;
50731;SDS011;36700;50.488;2.544;2023-06-26T00:18:04;8.63;;;3.90;;
50731;SDS011;36700;50.488;2.544;2023-06-26T00:20:31;10.10;;;3.90;;
50731;SDS011;36700;50.488;2.544;2023-06-26T00:22:59;8.93;;;3.85;;
50731;SDS011;36700;50.488;2.544;2023-06-26T00:25:25;6.53;;;3.17;;
50731;SDS011;36700;50.488;2.544;2023-06-26T00:27:51;7.43;;;3.78;;
50731;SDS011;36700;50.488;2.544;2023-06-26T00:30:17;11.25;;;3.88;;
50731;SDS011;36700;50.488;2.544;2023-06-26T00:32:44;8.20;;;3.40;;
50731;SDS011;36700;50.488;2.544;2023-06-26T00:37:39;9.10;;;3.65;;
50731;SDS011;36700;50.488;2.544;2023-06-26T00:40:05;9.52;;;3.70;;
50731;SDS011;36700;50.488;2.544;2023-06-26T00:42:32;9.45;;;3.53;;
50731;SDS011;36700;50.488;2.544;2023-06-26T00:44:58;7.97;;;3.47;;
50731;SDS011;36700;50.488;2.544;2023-06-26T00:47:25;10.43;;;3.80;;
50731;SDS011;36700;50.488;2.544;2023-06-26T00:49:52;8.80;;;3.70;;
50731;SDS011;36700;50.488;2.544;2023-06-26T00:52:21;9.00;;;3.85;;
50731;SDS011;36700;50.488;2.544;2023-06-26T00:54:55;10.10;;;3.75;;
50731;SDS011;36700;50.488;2.544;2023-06-26T00:57:21;10.95;;;3.70;;
50731;SDS011;36700;50.488;2.544;2023-06-26T00:59:49;12.27;;;3.75;;
50731;SDS011;36700;50.488;2.544;2023-06-26T01:02:16;9.70;;;3.58;;
50731;SDS011;36700;50.488;2.544;2023-06-26T01:04:49;9.57;;;3.45;;
50731;SDS011;36700;50.488;2.544;2023-06-26T01:07:18;10.43;;;3.40;;
50731;SDS011;36700;50.488;2.544;2023-06-26T01:09:47;9.45;;;3.58;;
50731;SDS011;36700;50.488;2.544;2023-06-26T01:12:14;11.57;;;3.80;;
50731;SDS011;36700;50.488;2.544;2023-06-26T01:14:41;8.70;;;3.50;;
50731;SDS011;36700;50.488;2.544;2023-06-26T01:17:07;10.30;;;3.55;;
50731;SDS011;36700;50.488;2.544;2023-06-26T01:19:38;11.15;;;4.00;;
50731;SDS011;36700;50.488;2.544;2023-06-26T01:27:50;9.43;;;3.40;;
50731;SDS011;36700;50.488;2.544;2023-06-26T01:30:21;9.30;;;3.42;;
50731;SDS011;36700;50.488;2.544;2023-06-26T01:32:50;10.88;;;4.07;;
50731;SDS011;36700;50.488;2.544;2023-06-26T01:35:17;10.45;;;3.67;;
50731;SDS011;36700;50.488;2.544;2023-06-26T01:37:49;8.32;;;3.28;;
50731;SDS011;36700;50.488;2.544;2023-06-26T01:42:41;9.23;;;3.22;;
50731;SDS011;36700;50.488;2.544;2023-06-26T01:45:12;10.60;;;3.42;;
50731;SDS011;36700;50.488;2.544;2023-06-26T01:47:44;9.65;;;3.38;;
50731;SDS011;36700;50.488;2.544;2023-06-26T01:50:18;12.60;;;3.83;;
50731;SDS011;36700;50.488;2.544;2023-06-26T01:52:53;9.32;;;3.63;;
50731;SDS011;36700;50.488;2.544;2023-06-26T01:55:54;11.70;;;3.80;;
50731;SDS011;36700;50.488;2.544;2023-06-26T01:58:26;10.98;;;3.33;;
50731;SDS011;36700;50.488;2.544;2023-06-26T02:00:54;10.88;;;3.67;;
50731;SDS011;36700;50.488;2.544;2023-06-26T02:03:20;11.43;;;3.67;;
50731;SDS011;36700;50.488;2.544;2023-06-26T02:05:50;13.55;;;3.92;;
50731;SDS011;36700;50.488;2.544;2023-06-26T02:08:17;9.85;;;3.45;;
50731;SDS011;36700;50.488;2.544;2023-06-26T02:10:43;11.10;;;3.85;;
50731;SDS011;36700;50.488;2.544;2023-06-26T02:13:08;10.77;;;3.58;;
50731;SDS011;36700;50.488;2.544;2023-06-26T02:15:35;12.82;;;3.50;;
50731;SDS011;36700;50.488;2.544;2023-06-26T02:18:01;10.18;;;3.53;;
50731;SDS011;36700;50.488;2.544;2023-06-26T02:20:27;13.10;;;3.65;;
50731;SDS011;36700;50.488;2.544;2023-06-26T02:22:53;10.18;;;3.65;;
50731;SDS011;36700;50.488;2.544;2023-06-26T02:25:20;11.35;;;3.42;;
50731;SDS011;36700;50.488;2.544;2023-06-26T02:27:46;10.93;;;3.45;;
50731;SDS011;36700;50.488;2.544;2023-06-26T02:30:12;11.02;;;3.67;;
50731;SDS011;36700;50.488;2.544;2023-06-26T02:32:44;8.77;;;3.38;;
50731;SDS011;36700;50.488;2.544;2023-06-26T02:35:11;9.98;;;3.30;;
50731;SDS011;36700;50.488;2.544;2023-06-26T02:37:37;11.18;;;3.40;;
50731;SDS011;36700;50.488;2.544;2023-06-26T02:40:03;11.45;;;3.30;;
50731;SDS011;36700;50.488;2.544;2023-06-26T02:42:31;12.27;;;3.95;;
50731;SDS011;36700;50.488;2.544;2023-06-26T02:44:57;10.13;;;3.42;;
50731;SDS011;36700;50.488;2.544;2023-06-26T02:47:23;10.98;;;3.60;;
50731;SDS011;36700;50.488;2.544;2023-06-26T02:49:50;11.15;;;3.20;;
50731;SDS011;36700;50.488;2.544;2023-06-26T02:52:20;10.52;;;3.40;;
50731;SDS011;36700;50.488;2.544;2023-06-26T02:54:47;11.25;;;3.25;;
50731;SDS011;36700;50.488;2.544;2023-06-26T02:57:14;9.75;;;3.38;;
50731;SDS011;36700;50.488;2.544;2023-06-26T02:59:40;9.82;;;3.38;;
50731;SDS011;36700;50.488;2.544;2023-06-26T03:02:06;9.02;;;3.28;;
50731;SDS011;36700;50.488;2.544;2023-06-26T03:04:34;10.82;;;3.35;;
50731;SDS011;36700;50.488;2.544;2023-06-26T03:07:03;10.02;;;3.22;;
50731;SDS011;36700;50.488;2.544;2023-06-26T03:09:29;11.95;;;3.50;;
50731;SDS011;36700;50.488;2.544;2023-06-26T03:11:55;12.32;;;3.40;;
50731;SDS011;36700;50.488;2.544;2023-06-26T03:14:22;9.52;;;3.33;;
50731;SDS011;36700;50.488;2.544;2023-06-26T03:16:48;12.00;;;3.53;;
50731;SDS011;36700;50.488;2.544;2023-06-26T03:19:15;10.57;;;3.35;;
50731;SDS011;36700;50.488;2.544;2023-06-26T03:21:42;10.52;;;3.13;;
50731;SDS011;36700;50.488;2.544;2023-06-26T03:24:08;9.52;;;3.05;;
50731;SDS011;36700;50.488;2.544;2023-06-26T03:26:34;9.95;;;3.38;;
50731;SDS011;36700;50.488;2.544;2023-06-26T03:29:00;9.02;;;3.20;;
50731;SDS011;36700;50.488;2.544;2023-06-26T03:31:26;10.82;;;3.35;;
50731;SDS011;36700;50.488;2.544;2023-06-26T03:33:52;13.15;;;3.55;;
50731;SDS011;36700;50.488;2.544;2023-06-26T03:36:18;10.73;;;3.35;;
50731;SDS011;36700;50.488;2.544;2023-06-26T03:38:44;9.48;;;3.13;;
50731;SDS011;36700;50.488;2.544;2023-06-26T03:41:11;11.57;;;3.13;;
50731;SDS011;36700;50.488;2.544;2023-06-26T03:43:37;10.73;;;3.10;;
50731;SDS011;36700;50.488;2.544;2023-06-26T03:46:03;9.68;;;2.90;;
50731;SDS011;36700;50.488;2.544;2023-06-26T03:48:31;11.15;;;2.88;;
50731;SDS011;36700;50.488;2.544;2023-06-26T03:50:57;9.18;;;2.92;;
50731;SDS011;36700;50.488;2.544;2023-06-26T03:53:25;12.45;;;3.63;;
50731;SDS011;36700;50.488;2.544;2023-06-26T03:55:51;12.65;;;2.90;;
50731;SDS011;36700;50.488;2.544;2023-06-26T03:58:17;8.30;;;2.80;;
50731;SDS011;36700;50.488;2.544;2023-06-26T04:00:43;11.98;;;2.78;;
50731;SDS011;36700;50.488;2.544;2023-06-26T04:03:15;11.63;;;3.40;;
50731;SDS011;36700;50.488;2.544;2023-06-26T04:05:41;9.50;;;3.05;;
50731;SDS011;36700;50.488;2.544;2023-06-26T04:08:08;10.13;;;3.22;;
50731;SDS011;36700;50.488;2.544;2023-06-26T04:10:36;9.88;;;3.08;;
50731;SDS011;36700;50.488;2.544;2023-06-26T04:13:02;10.80;;;2.83;;
50731;SDS011;36700;50.488;2.544;2023-06-26T04:15:28;8.77;;;2.95;;
50731;SDS011;36700;50.488;2.544;2023-06-26T04:17:54;9.07;;;2.72;;
50731;SDS011;36700;50.488;2.544;2023-06-26T04:20:20;9.30;;;2.88;;
50731;SDS011;36700;50.488;2.544;2023-06-26T04:22:46;13.20;;;3.40;;
50731;SDS011;36700;50.488;2.544;2023-06-26T04:25:12;12.15;;;3.15;;
50731;SDS011;36700;50.488;2.544;2023-06-26T04:27:38;9.23;;;2.80;;
50731;SDS011;36700;50.488;2.544;2023-06-26T04:30:05;8.65;;;2.55;;
50731;SDS011;36700;50.488;2.544;2023-06-26T04:32:34;10.80;;;3.10;;
50731;SDS011;36700;50.488;2.544;2023-06-26T04:35:00;9.68;;;3.08;;
50731;SDS011;36700;50.488;2.544;2023-06-26T04:37:27;10.93;;;3.20;;
50731;SDS011;36700;50.488;2.544;2023-06-26T04:39:53;8.82;;;2.60;;
50731;SDS011;36700;50.488;2.544;2023-06-26T04:42:19;8.70;;;2.65;;
50731;SDS011;36700;50.488;2.544;2023-06-26T04:44:48;7.72;;;2.30;;
50731;SDS011;36700;50.488;2.544;2023-06-26T04:47:14;8.90;;;2.40;;
50731;SDS011;36700;50.488;2.544;2023-06-26T04:49:41;9.63;;;2.95;;
50731;SDS011;36700;50.488;2.544;2023-06-26T04:52:12;7.38;;;2.35;;
50731;SDS011;36700;50.488;2.544;2023-06-26T04:54:41;12.70;;;3.13;;
50731;SDS011;36700;50.488;2.544;2023-06-26T04:59:37;8.63;;;2.80;;
50731;SDS011;36700;50.488;2.544;2023-06-26T05:02:04;10.32;;;2.90;;
50731;SDS011;36700;50.488;2.544;2023-06-26T05:04:32;11.00;;;2.95;;
50731;SDS011;36700;50.488;2.544;2023-06-26T05:06:59;8.45;;;2.60;;
50731;SDS011;36700;50.488;2.544;2023-06-26T05:09:25;8.40;;;2.65;;
50731;SDS011;36700;50.488;2.544;2023-06-26T05:11:51;6.05;;;2.20;;
50731;SDS011;36700;50.488;2.544;2023-06-26T05:14:17;6.32;;;2.42;;
50731;SDS011;36700;50.488;2.544;2023-06-26T05:16:43;8.00;;;2.50;;
50731;SDS011;36700;50.488;2.544;2023-06-26T05:19:09;5.75;;;2.03;;
50731;SDS011;36700;50.488;2.544;2023-06-26T05:21:36;7.28;;;2.20;;
50731;SDS011;36700;50.488;2.544;2023-06-26T05:24:04;7.32;;;2.38;;
50731;SDS011;36700;50.488;2.544;2023-06-26T05:26:33;6.70;;;2.35;;
50731;SDS011;36700;50.488;2.544;2023-06-26T05:29:00;7.75;;;2.40;;
50731;SDS011;36700;50.488;2.544;2023-06-26T05:31:26;8.80;;;2.30;;
50731;SDS011;36700;50.488;2.544;2023-06-26T05:33:59;8.50;;;2.47;;
50731;SDS011;36700;50.488;2.544;2023-06-26T05:36:29;7.30;;;2.30;;
50731;SDS011;36700;50.488;2.544;2023-06-26T05:38:59;7.50;;;2.45;;
50731;SDS011;36700;50.488;2.544;2023-06-26T05:41:25;8.85;;;2.70;;
50731;SDS011;36700;50.488;2.544;2023-06-26T05:43:51;9.10;;;2.50;;
50731;SDS011;36700;50.488;2.544;2023-06-26T05:46:20;8.75;;;2.72;;
50731;SDS011;36700;50.488;2.544;2023-06-26T05:48:57;8.48;;;2.50;;
50731;SDS011;36700;50.488;2.544;2023-06-26T05:51:24;7.13;;;2.33;;
50731;SDS011;36700;50.488;2.544;2023-06-26T05:53:50;8.32;;;2.47;;
50731;SDS011;36700;50.488;2.544;2023-06-26T05:56:17;9.00;;;2.58;;
50731;SDS011;36700;50.488;2.544;2023-06-26T05:58:44;7.47;;;2.03;;
50731;SDS011;36700;50.488;2.544;2023-06-26T06:01:11;6.95;;;2.30;;
50731;SDS011;36700;50.488;2.544;2023-06-26T06:03:38;9.98;;;2.30;;
50731;SDS011;36700;50.488;2.544;2023-06-26T06:06:05;7.07;;;2.20;;
50731;SDS011;36700;50.488;2.544;2023-06-26T06:08:31;9.23;;;2.40;;
50731;SDS011;36700;50.488;2.544;2023-06-26T06:10:57;7.68;;;2.42;;
50731;SDS011;36700;50.488;2.544;2023-06-26T06:13:25;7.07;;;2.33;;
50731;SDS011;36700;50.488;2.544;2023-06-26T06:15:51;8.80;;;2.20;;
50731;SDS011;36700;50.488;2.544;2023-06-26T06:18:17;6.72;;;2.20;;
50731;SDS011;36700;50.488;2.544;2023-06-26T06:20:43;7.88;;;2.20;;
50731;SDS011;36700;50.488;2.544;2023-06-26T06:23:09;9.57;;;2.35;;
50731;SDS011;36700;50.488;2.544;2023-06-26T06:25:34;10.48;;;2.55;;
50731;SDS011;36700;50.488;2.544;2023-06-26T06:28:00;9.40;;;2.30;;
50731;SDS011;36700;50.488;2.544;2023-06-26T06:30:26;7.75;;;2.00;;
50731;SDS011;36700;50.488;2.544;2023-06-26T06:32:53;7.38;;;2.55;;
50731;SDS011;36700;50.488;2.544;2023-06-26T06:35:19;6.65;;;2.00;;
50731;SDS011;36700;50.488;2.544;2023-06-26T06:37:45;6.28;;;2.20;;
50731;SDS011;36700;50.488;2.544;2023-06-26T06:40:11;5.32;;;1.92;;
50731;SDS011;36700;50.488;2.544;2023-06-26T06:42:38;7.38;;;2.45;;
50731;SDS011;36700;50.488;2.544;2023-06-26T06:45:04;11.02;;;2.72;;
50731;SDS011;36700;50.488;2.544;2023-06-26T06:47:33;7.10;;;2.25;;
50731;SDS011;36700;50.488;2.544;2023-06-26T06:50:00;10.35;;;2.58;;
50731;SDS011;36700;50.488;2.544;2023-06-26T06:52:34;7.22;;;2.10;;
50731;SDS011;36700;50.488;2.544;2023-06-26T06:55:05;9.02;;;2.17;;
50731;SDS011;36700;50.488;2.544;2023-06-26T06:57:38;6.63;;;2.08;;
50731;SDS011;36700;50.488;2.544;2023-06-26T07:00:08;6.82;;;1.85;;
50731;SDS011;36700;50.488;2.544;2023-06-26T07:02:41;4.65;;;1.88;;
50731;SDS011;36700;50.488;2.544;2023-06-26T07:05:09;6.47;;;1.90;;
50731;SDS011;36700;50.488;2.544;2023-06-26T07:07:36;5.43;;;1.90;;
50731;SDS011;36700;50.488;2.544;2023-06-26T07:10:04;7.60;;;2.13;;
50731;SDS011;36700;50.488;2.544;2023-06-26T07:12:31;7.22;;;2.10;;
50731;SDS011;36700;50.488;2.544;2023-06-26T07:14:57;8.73;;;2.20;;
50731;SDS011;36700;50.488;2.544;2023-06-26T07:17:23;5.70;;;2.03;;
50731;SDS011;36700;50.488;2.544;2023-06-26T07:19:49;7.40;;;2.17;;
50731;SDS011;36700;50.488;2.544;2023-06-26T07:22:15;7.35;;;2.08;;
50731;SDS011;36700;50.488;2.544;2023-06-26T07:24:41;6.32;;;2.00;;
50731;SDS011;36700;50.488;2.544;2023-06-26T07:27:08;5.57;;;1.90;;
50731;SDS011;36700;50.488;2.544;2023-06-26T07:29:33;8.80;;;2.17;;
50731;SDS011;36700;50.488;2.544;2023-06-26T07:31:59;6.28;;;2.10;;
50731;SDS011;36700;50.488;2.544;2023-06-26T07:34:25;6.15;;;2.00;;
50731;SDS011;36700;50.488;2.544;2023-06-26T07:36:51;9.02;;;2.10;;
50731;SDS011;36700;50.488;2.544;2023-06-26T07:39:17;5.78;;;1.85;;
50731;SDS011;36700;50.488;2.544;2023-06-26T07:41:43;7.10;;;2.03;;
50731;SDS011;36700;50.488;2.544;2023-06-26T07:44:10;6.43;;;2.00;;
50731;SDS011;36700;50.488;2.544;2023-06-26T07:46:36;8.70;;;2.13;;
50731;SDS011;36700;50.488;2.544;2023-06-26T07:49:02;5.40;;;1.63;;
50731;SDS011;36700;50.488;2.544;2023-06-26T07:51:27;6.63;;;1.77;;
50731;SDS011;36700;50.488;2.544;2023-06-26T07:53:53;9.82;;;2.17;;
50731;SDS011;36700;50.488;2.544;2023-06-26T07:56:19;6.88;;;1.80;;
50731;SDS011;36700;50.488;2.544;2023-06-26T07:58:45;4.63;;;1.80;;
50731;SDS011;36700;50.488;2.544;2023-06-26T08:01:11;5.78;;;2.20;;
50731;SDS011;36700;50.488;2.544;2023-06-26T08:03:37;4.97;;;1.75;;
50731;SDS011;36700;50.488;2.544;2023-06-26T08:06:03;9.15;;;2.60;;
50731;SDS011;36700;50.488;2.544;2023-06-26T08:08:29;6.13;;;2.00;;
50731;SDS011;36700;50.488;2.544;2023-06-26T08:10:55;4.82;;;1.95;;
50731;SDS011;36700;50.488;2.544;2023-06-26T08:13:21;5.85;;;2.20;;
50731;SDS011;36700;50.488;2.544;2023-06-26T08:15:47;7.47;;;2.00;;
50731;SDS011;36700;50.488;2.544;2023-06-26T08:18:13;6.30;;;2.08;;
50731;SDS011;36700;50.488;2.544;2023-06-26T08:20:39;6.47;;;1.75;;
50731;SDS011;36700;50.488;2.544;2023-06-26T08:23:05;8.02;;;1.80;;
50731;SDS011;36700;50.488;2.544;2023-06-26T08:25:31;5.75;;;1.70;;
50731;SDS011;36700;50.488;2.544;2023-06-26T08:27:57;6.00;;;1.85;;
50731;SDS011;36700;50.488;2.544;2023-06-26T08:30:23;5.00;;;1.88;;
50731;SDS011;36700;50.488;2.544;2023-06-26T08:32:54;4.53;;;2.00;;
50731;SDS011;36700;50.488;2.544;2023-06-26T08:35:21;4.70;;;1.60;;
50731;SDS011;36700;50.488;2.544;2023-06-26T08:37:47;5.20;;;1.90;;
50731;SDS011;36700;50.488;2.544;2023-06-26T08:40:13;6.90;;;1.85;;
50731;SDS011;36700;50.488;2.544;2023-06-26T08:42:42;5.88;;;1.73;;
50731;SDS011;36700;50.488;2.544;2023-06-26T08:45:08;5.00;;;1.85;;
50731;SDS011;36700;50.488;2.544;2023-06-26T08:47:34;4.07;;;1.80;;
50731;SDS011;36700;50.488;2.544;2023-06-26T08:50:04;6.75;;;1.90;;
50731;SDS011;36700;50.488;2.544;2023-06-26T08:52:55;6.32;;;1.95;;
50731;SDS011;36700;50.488;2.544;2023-06-26T08:55:26;6.28;;;1.83;;
50731;SDS011;36700;50.488;2.544;2023-06-26T08:57:54;6.00;;;1.70;;
50731;SDS011;36700;50.488;2.544;2023-06-26T09:00:20;5.55;;;1.83;;
50731;SDS011;36700;50.488;2.544;2023-06-26T09:02:46;5.93;;;1.88;;
50731;SDS011;36700;50.488;2.544;2023-06-26T09:05:12;5.85;;;1.95;;
50731;SDS011;36700;50.488;2.544;2023-06-26T09:07:38;5.95;;;2.28;;
50731;SDS011;36700;50.488;2.544;2023-06-26T09:10:04;6.68;;;1.80;;
50731;SDS011;36700;50.488;2.544;2023-06-26T09:12:30;5.25;;;1.80;;
50731;SDS011;36700;50.488;2.544;2023-06-26T09:14:57;5.93;;;1.98;;
50731;SDS011;36700;50.488;2.544;2023-06-26T09:17:29;5.68;;;1.70;;
50731;SDS011;36700;50.488;2.544;2023-06-26T09:19:56;6.10;;;1.63;;
50731;SDS011;36700;50.488;2.544;2023-06-26T09:22:22;5.22;;;1.70;;
50731;SDS011;36700;50.488;2.544;2023-06-26T09:24:48;4.72;;;1.70;;
50731;SDS011;36700;50.488;2.544;2023-06-26T09:27:15;7.43;;;1.80;;
50731;SDS011;36700;50.488;2.544;2023-06-26T09:29:44;7.88;;;2.00;;
50731;SDS011;36700;50.488;2.544;2023-06-26T09:32:12;3.30;;;1.50;;
50731;SDS011;36700;50.488;2.544;2023-06-26T09:34:40;4.05;;;1.73;;
50731;SDS011;36700;50.488;2.544;2023-06-26T09:37:08;6.30;;;2.00;;
50731;SDS011;36700;50.488;2.544;2023-06-26T09:39:36;5.60;;;1.63;;
50731;SDS011;36700;50.488;2.544;2023-06-26T09:42:02;5.90;;;2.00;;
50731;SDS011;36700;50.488;2.544;2023-06-26T09:44:30;5.13;;;2.00;;
50731;SDS011;36700;50.488;2.544;2023-06-26T09:46:57;5.13;;;1.60;;
50731;SDS011;36700;50.488;2.544;2023-06-26T09:49:23;5.00;;;1.80;;
50731;SDS011;36700;50.488;2.544;2023-06-26T09:51:49;4.82;;;1.73;;
50731;SDS011;36700;50.488;2.544;2023-06-26T09:54:16;4.97;;;1.60;;
50731;SDS011;36700;50.488;2.544;2023-06-26T09:56:43;5.88;;;1.80;;
50731;SDS011;36700;50.488;2.544;2023-06-26T09:59:09;4.63;;;1.33;;
50731;SDS011;36700;50.488;2.544;2023-06-26T10:01:39;6.13;;;1.70;;
50731;SDS011;36700;50.488;2.544;2023-06-26T10:04:06;6.53;;;1.95;;
50731;SDS011;36700;50.488;2.544;2023-06-26T10:06:33;5.47;;;1.73;;
50731;SDS011;36700;50.488;2.544;2023-06-26T10:09:02;5.68;;;1.80;;
50731;SDS011;36700;50.488;2.544;2023-06-26T10:11:31;6.38;;;1.70;;
50731;SDS011;36700;50.488;2.544;2023-06-26T10:14:03;5.35;;;1.90;;
50731;SDS011;36700;50.488;2.544;2023-06-26T10:16:32;6.70;;;1.90;;
50731;SDS011;36700;50.488;2.544;2023-06-26T10:19:01;5.78;;;2.15;;
50731;SDS011;36700;50.488;2.544;2023-06-26T10:21:30;6.38;;;1.83;;
50731;SDS011;36700;50.488;2.544;2023-06-26T10:24:00;6.35;;;1.80;;
50731;SDS011;36700;50.488;2.544;2023-06-26T10:26:26;5.32;;;1.60;;
50731;SDS011;36700;50.488;2.544;2023-06-26T10:28:53;4.13;;;1.70;;
50731;SDS011;36700;50.488;2.544;2023-06-26T10:31:25;3.85;;;1.58;;
50731;SDS011;36700;50.488;2.544;2023-06-26T10:33:53;5.18;;;1.90;;
50731;SDS011;36700;50.488;2.544;2023-06-26T10:36:20;6.05;;;1.60;;
50731;SDS011;36700;50.488;2.544;2023-06-26T10:38:58;4.82;;;1.63;;
50731;SDS011;36700;50.488;2.544;2023-06-26T10:41:36;5.63;;;1.88;;
50731;SDS011;36700;50.488;2.544;2023-06-26T10:44:10;5.28;;;1.80;;
50731;SDS011;36700;50.488;2.544;2023-06-26T10:46:51;4.72;;;1.45;;
50731;SDS011;36700;50.488;2.544;2023-06-26T10:49:19;5.72;;;1.58;;
50731;SDS011;36700;50.488;2.544;2023-06-26T10:51:47;4.75;;;1.40;;
50731;SDS011;36700;50.488;2.544;2023-06-26T10:54:18;5.27;;;1.70;;
50731;SDS011;36700;50.488;2.544;2023-06-26T10:56:46;6.43;;;2.10;;
50731;SDS011;36700;50.488;2.544;2023-06-26T10:59:20;4.88;;;1.38;;
50731;SDS011;36700;50.488;2.544;2023-06-26T11:02:08;7.28;;;1.80;;
50731;SDS011;36700;50.488;2.544;2023-06-26T11:10:02;5.50;;;1.42;;
50731;SDS011;36700;50.488;2.544;2023-06-26T11:15:08;4.30;;;1.67;;
50731;SDS011;36700;50.488;2.544;2023-06-26T11:17:38;5.82;;;1.70;;
50731;SDS011;36700;50.488;2.544;2023-06-26T11:20:06;6.32;;;1.40;;
50731;SDS011;36700;50.488;2.544;2023-06-26T11:22:40;5.47;;;1.50;;
50731;SDS011;36700;50.488;2.544;2023-06-26T11:25:07;7.25;;;1.67;;
50731;SDS011;36700;50.488;2.544;2023-06-26T11:27:41;4.93;;;1.70;;
50731;SDS011;36700;50.488;2.544;2023-06-26T11:30:09;4.45;;;1.40;;
50731;SDS011;36700;50.488;2.544;2023-06-26T11:32:36;5.57;;;1.70;;
50731;SDS011;36700;50.488;2.544;2023-06-26T11:35:03;4.85;;;1.63;;
50731;SDS011;36700;50.488;2.544;2023-06-26T11:37:30;5.05;;;1.65;;
50731;SDS011;36700;50.488;2.544;2023-06-26T11:39:57;5.85;;;1.88;;
50731;SDS011;36700;50.488;2.544;2023-06-26T11:42:23;6.57;;;1.90;;
50731;SDS011;36700;50.488;2.544;2023-06-26T11:44:50;5.15;;;1.60;;
50731;SDS011;36700;50.488;2.544;2023-06-26T11:47:17;5.32;;;1.70;;
50731;SDS011;36700;50.488;2.544;2023-06-26T11:49:45;5.78;;;1.60;;
50731;SDS011;36700;50.488;2.544;2023-06-26T11:52:15;3.78;;;1.48;;
50731;SDS011;36700;50.488;2.544;2023-06-26T11:54:42;3.72;;;1.52;;
50731;SDS011;36700;50.488;2.544;2023-06-26T11:57:08;5.22;;;1.75;;
50731;SDS011;36700;50.488;2.544;2023-06-26T11:59:40;5.68;;;1.50;;
50731;SDS011;36700;50.488;2.544;2023-06-26T12:02:07;5.13;;;1.50;;
50731;SDS011;36700;50.488;2.544;2023-06-26T12:04:34;5.13;;;1.63;;
50731;SDS011;36700;50.488;2.544;2023-06-26T12:07:02;4.47;;;1.70;;
50731;SDS011;36700;50.488;2.544;2023-06-26T12:09:32;4.97;;;1.88;;
50731;SDS011;36700;50.488;2.544;2023-06-26T12:12:01;5.40;;;1.50;;
50731;SDS011;36700;50.488;2.544;2023-06-26T12:14:27;5.13;;;1.50;;
50731;SDS011;36700;50.488;2.544;2023-06-26T12:16:54;4.78;;;1.52;;
50731;SDS011;36700;50.488;2.544;2023-06-26T12:19:26;4.57;;;1.40;;
50731;SDS011;36700;50.488;2.544;2023-06-26T12:24:19;5.75;;;1.90;;
50731;SDS011;36700;50.488;2.544;2023-06-26T12:26:49;4.10;;;1.40;;
50731;SDS011;36700;50.488;2.544;2023-06-26T12:29:19;4.55;;;1.70;;
50731;SDS011;36700;50.488;2.544;2023-06-26T12:31:48;7.07;;;1.60;;
50731;SDS011;36700;50.488;2.544;2023-06-26T12:34:17;6.55;;;1.60;;
50731;SDS011;36700;50.488;2.544;2023-06-26T12:36:47;6.30;;;1.70;;
50731;SDS011;36700;50.488;2.544;2023-06-26T12:39:16;6.40;;;1.70;;
50731;SDS011;36700;50.488;2.544;2023-06-26T12:41:51;4.85;;;1.63;;
50731;SDS011;36700;50.488;2.544;2023-06-26T12:44:22;5.15;;;1.58;;
50731;SDS011;36700;50.488;2.544;2023-06-26T12:47:03;5.40;;;1.83;;
50731;SDS011;36700;50.488;2.544;2023-06-26T12:49:39;3.47;;;1.63;;
50731;SDS011;36700;50.488;2.544;2023-06-26T12:52:08;5.25;;;1.50;;
50731;SDS011;36700;50.488;2.544;2023-06-26T12:54:35;4.20;;;1.42;;
50731;SDS011;36700;50.488;2.544;2023-06-26T12:57:02;5.75;;;1.83;;
50731;SDS011;36700;50.488;2.544;2023-06-26T12:59:32;5.38;;;1.55;;
50731;SDS011;36700;50.488;2.544;2023-06-26T13:01:59;6.20;;;2.05;;
50731;SDS011;36700;50.488;2.544;2023-06-26T13:04:25;5.55;;;1.60;;
50731;SDS011;36700;50.488;2.544;2023-06-26T13:06:52;8.50;;;1.75;;
50731;SDS011;36700;50.488;2.544;2023-06-26T13:09:20;5.00;;;1.50;;
50731;SDS011;36700;50.488;2.544;2023-06-26T13:11:47;5.47;;;1.77;;
50731;SDS011;36700;50.488;2.544;2023-06-26T13:14:13;3.25;;;1.45;;
50731;SDS011;36700;50.488;2.544;2023-06-26T13:16:39;4.72;;;1.40;;
50731;SDS011;36700;50.488;2.544;2023-06-26T13:19:14;4.97;;;1.77;;
50731;SDS011;36700;50.488;2.544;2023-06-26T13:21:40;4.78;;;1.50;;
50731;SDS011;36700;50.488;2.544;2023-06-26T13:24:07;5.35;;;1.50;;
50731;SDS011;36700;50.488;2.544;2023-06-26T13:26:33;4.30;;;1.60;;
50731;SDS011;36700;50.488;2.544;2023-06-26T13:28:59;6.55;;;1.60;;
50731;SDS011;36700;50.488;2.544;2023-06-26T13:31:25;3.97;;;1.70;;
50731;SDS011;36700;50.488;2.544;2023-06-26T13:33:52;4.22;;;1.48;;
50731;SDS011;36700;50.488;2.544;2023-06-26T13:36:18;6.30;;;1.27;;
50731;SDS011;36700;50.488;2.544;2023-06-26T13:38:44;4.43;;;1.48;;
50731;SDS011;36700;50.488;2.544;2023-06-26T13:41:10;4.28;;;1.45;;
50731;SDS011;36700;50.488;2.544;2023-06-26T13:43:37;5.53;;;1.52;;
50731;SDS011;36700;50.488;2.544;2023-06-26T13:46:03;4.65;;;1.50;;
50731;SDS011;36700;50.488;2.544;2023-06-26T13:48:29;6.50;;;1.80;;
50731;SDS011;36700;50.488;2.544;2023-06-26T13:50:55;4.40;;;1.63;;
50731;SDS011;36700;50.488;2.544;2023-06-26T13:53:21;5.43;;;1.60;;
50731;SDS011;36700;50.488;2.544;2023-06-26T13:55:47;5.18;;;1.60;;
50731;SDS011;36700;50.488;2.544;2023-06-26T13:58:14;6.22;;;1.50;;
50731;SDS011;36700;50.488;2.544;2023-06-26T14:00:40;9.18;;;2.00;;
50731;SDS011;36700;50.488;2.544;2023-06-26T14:03:06;5.70;;;1.65;;
50731;SDS011;36700;50.488;2.544;2023-06-26T14:05:33;4.32;;;1.80;;
50731;SDS011;36700;50.488;2.544;2023-06-26T14:08:01;8.07;;;1.88;;
50731;SDS011;36700;50.488;2.544;2023-06-26T14:10:30;5.18;;;1.70;;
50731;SDS011;36700;50.488;2.544;2023-06-26T14:12:56;4.30;;;1.65;;
50731;SDS011;36700;50.488;2.544;2023-06-26T14:15:22;4.28;;;1.60;;
50731;SDS011;36700;50.488;2.544;2023-06-26T14:17:48;4.70;;;1.55;;
50731;SDS011;36700;50.488;2.544;2023-06-26T14:20:16;5.03;;;1.33;;
50731;SDS011;36700;50.488;2.544;2023-06-26T14:22:42;3.78;;;1.58;;
50731;SDS011;36700;50.488;2.544;2023-06-26T14:25:09;5.50;;;1.75;;
50731;SDS011;36700;50.488;2.544;2023-06-26T14:27:36;5.75;;;1.52;;
50731;SDS011;36700;50.488;2.544;2023-06-26T14:30:03;4.88;;;1.55;;
50731;SDS011;36700;50.488;2.544;2023-06-26T14:32:30;5.63;;;1.58;;
50731;SDS011;36700;50.488;2.544;2023-06-26T14:34:56;5.60;;;1.50;;
50731;SDS011;36700;50.488;2.544;2023-06-26T14:37:23;6.38;;;1.70;;
50731;SDS011;36700;50.488;2.544;2023-06-26T14:39:49;4.70;;;1.52;;
50731;SDS011;36700;50.488;2.544;2023-06-26T14:42:15;4.47;;;1.55;;
50731;SDS011;36700;50.488;2.544;2023-06-26T14:44:42;6.40;;;1.40;;
50731;SDS011;36700;50.488;2.544;2023-06-26T14:47:08;5.18;;;1.67;;
50731;SDS011;36700;50.488;2.544;2023-06-26T14:49:34;5.60;;;1.60;;
50731;SDS011;36700;50.488;2.544;2023-06-26T14:52:01;6.63;;;2.03;;
50731;SDS011;36700;50.488;2.544;2023-06-26T14:54:28;3.72;;;1.60;;
50731;SDS011;36700;50.488;2.544;2023-06-26T14:56:54;4.25;;;1.50;;
50731;SDS011;36700;50.488;2.544;2023-06-26T14:59:19;4.93;;;1.65;;
50731;SDS011;36700;50.488;2.544;2023-06-26T15:01:46;5.65;;;1.40;;
50731;SDS011;36700;50.488;2.544;2023-06-26T15:04:12;9.15;;;1.40;;
50731;SDS011;36700;50.488;2.544;2023-06-26T15:06:38;6.38;;;1.50;;
50731;SDS011;36700;50.488;2.544;2023-06-26T15:09:04;4.97;;;1.50;;
50731;SDS011;36700;50.488;2.544;2023-06-26T15:11:31;9.13;;;1.65;;